sensor_id;sensor_type;location;lat;lon;timestamp;temperature;humidity
1381;DHT22;684;48.342;10.096;2023-06-24T00:01:29;18.70;18.20
1381;DHT22;684;48.342;10.096;2023-06-24T00:03:57;18.70;18.40
1381;DHT22;684;48.342;10.096;2023-06-24T00:06:23;18.70;18.40
1381;DHT22;684;48.342;10.096;2023-06-24T00:08:52;18.70;18.20
1381;DHT22;684;48.342;10.096;2023-06-24T00:11:27;18.70;18.00
1381;DHT22;684;48.342;10.096;2023-06-24T00:13:54;18.70;18.10
1381;DHT22;684;48.342;10.096;2023-06-24T00:16:21;18.70;18.00
1381;DHT22;684;48.342;10.096;2023-06-24T00:18:53;18.70;18.20
1381;DHT22;684;48.342;10.096;2023-06-24T00:21:20;18.70;18.60
1381;DHT22;684;48.342;10.096;2023-06-24T00:23:48;18.70;18.90
1381;DHT22;684;48.342;10.096;2023-06-24T00:26:15;18.70;19.30
1381;DHT22;684;48.342;10.096;2023-06-24T00:28:44;18.70;19.60
1381;DHT22;684;48.342;10.096;2023-06-24T00:31:10;18.70;19.80
1381;DHT22;684;48.342;10.096;2023-06-24T00:33:37;18.70;20.00
1381;DHT22;684;48.342;10.096;2023-06-24T00:36:05;18.70;20.80
1381;DHT22;684;48.342;10.096;2023-06-24T00:38:34;18.70;21.00
1381;DHT22;684;48.342;10.096;2023-06-24T00:41:00;18.70;21.40
1381;DHT22;684;48.342;10.096;2023-06-24T00:43:28;18.70;22.00
1381;DHT22;684;48.342;10.096;2023-06-24T00:45:57;18.70;22.30
1381;DHT22;684;48.342;10.096;2023-06-24T00:48:24;18.70;22.60
1381;DHT22;684;48.342;10.096;2023-06-24T00:50:51;18.70;23.40
1381;DHT22;684;48.342;10.096;2023-06-24T00:53:18;18.70;25.50
1381;DHT22;684;48.342;10.096;2023-06-24T00:55:50;18.60;27.10
1381;DHT22;684;48.342;10.096;2023-06-24T00:58:18;18.50;27.60
1381;DHT22;684;48.342;10.096;2023-06-24T01:00:46;18.50;27.90
1381;DHT22;684;48.342;10.096;2023-06-24T01:03:23;18.40;28.00
1381;DHT22;684;48.342;10.096;2023-06-24T01:05:51;18.40;28.20
1381;DHT22;684;48.342;10.096;2023-06-24T01:08:18;18.30;28.20
1381;DHT22;684;48.342;10.096;2023-06-24T01:10:48;18.30;29.10
1381;DHT22;684;48.342;10.096;2023-06-24T01:13:15;18.30;28.50
1381;DHT22;684;48.342;10.096;2023-06-24T01:15:42;18.30;28.60
1381;DHT22;684;48.342;10.096;2023-06-24T01:18:13;18.30;28.80
1381;DHT22;684;48.342;10.096;2023-06-24T01:20:53;18.20;29.50
1381;DHT22;684;48.342;10.096;2023-06-24T01:23:44;18.20;29.60
1381;DHT22;684;48.342;10.096;2023-06-24T01:26:47;18.20;29.60
1381;DHT22;684;48.342;10.096;2023-06-24T01:29:40;18.20;30.00
1381;DHT22;684;48.342;10.096;2023-06-24T01:32:15;18.20;30.20
1381;DHT22;684;48.342;10.096;2023-06-24T01:34:48;18.10;30.70
1381;DHT22;684;48.342;10.096;2023-06-24T01:37:20;18.10;31.50
1381;DHT22;684;48.342;10.096;2023-06-24T01:40:00;18.00;32.10
1381;DHT22;684;48.342;10.096;2023-06-24T01:42:33;18.00;31.90
1381;DHT22;684;48.342;10.096;2023-06-24T01:45:02;18.00;32.00
1381;DHT22;684;48.342;10.096;2023-06-24T01:47:31;18.00;31.90
1381;DHT22;684;48.342;10.096;2023-06-24T01:49:59;18.00;31.70
1381;DHT22;684;48.342;10.096;2023-06-24T01:52:29;18.10;31.10
1381;DHT22;684;48.342;10.096;2023-06-24T01:54:58;18.10;30.50
1381;DHT22;684;48.342;10.096;2023-06-24T01:57:26;18.20;30.00
1381;DHT22;684;48.342;10.096;2023-06-24T01:59:54;18.20;29.70
1381;DHT22;684;48.342;10.096;2023-06-24T02:02:22;18.20;29.60
1381;DHT22;684;48.342;10.096;2023-06-24T02:04:53;18.30;29.70
1381;DHT22;684;48.342;10.096;2023-06-24T02:07:21;18.30;29.80
1381;DHT22;684;48.342;10.096;2023-06-24T02:09:49;18.30;29.70
1381;DHT22;684;48.342;10.096;2023-06-24T02:12:17;18.30;29.60
1381;DHT22;684;48.342;10.096;2023-06-24T02:14:45;18.20;30.20
1381;DHT22;684;48.342;10.096;2023-06-24T02:17:14;18.20;30.00
1381;DHT22;684;48.342;10.096;2023-06-24T02:19:41;18.20;30.10
1381;DHT22;684;48.342;10.096;2023-06-24T02:22:10;18.20;30.00
1381;DHT22;684;48.342;10.096;2023-06-24T02:24:38;18.20;29.60
1381;DHT22;684;48.342;10.096;2023-06-24T02:27:07;18.10;29.30
1381;DHT22;684;48.342;10.096;2023-06-24T02:29:35;18.00;29.40
1381;DHT22;684;48.342;10.096;2023-06-24T02:32:04;17.90;29.70
1381;DHT22;684;48.342;10.096;2023-06-24T02:34:31;17.90;28.80
1381;DHT22;684;48.342;10.096;2023-06-24T02:36:58;17.90;28.50
1381;DHT22;684;48.342;10.096;2023-06-24T02:39:26;17.90;28.00
1381;DHT22;684;48.342;10.096;2023-06-24T02:41:53;18.00;27.60
1381;DHT22;684;48.342;10.096;2023-06-24T02:44:19;18.00;27.60
1381;DHT22;684;48.342;10.096;2023-06-24T02:46:47;18.00;28.10
1381;DHT22;684;48.342;10.096;2023-06-24T02:49:16;18.00;28.10
1381;DHT22;684;48.342;10.096;2023-06-24T02:51:44;18.00;28.00
1381;DHT22;684;48.342;10.096;2023-06-24T02:54:11;18.10;28.00
1381;DHT22;684;48.342;10.096;2023-06-24T02:56:40;18.10;27.80
1381;DHT22;684;48.342;10.096;2023-06-24T02:59:09;18.10;27.90
1381;DHT22;684;48.342;10.096;2023-06-24T03:01:36;18.10;27.80
1381;DHT22;684;48.342;10.096;2023-06-24T03:04:05;18.10;27.50
1381;DHT22;684;48.342;10.096;2023-06-24T03:06:32;18.10;26.80
1381;DHT22;684;48.342;10.096;2023-06-24T03:09:02;18.10;26.60
1381;DHT22;684;48.342;10.096;2023-06-24T03:11:29;18.00;26.70
1381;DHT22;684;48.342;10.096;2023-06-24T03:13:57;18.00;26.50
1381;DHT22;684;48.342;10.096;2023-06-24T03:16:24;18.00;26.50
1381;DHT22;684;48.342;10.096;2023-06-24T03:18:51;18.00;25.90
1381;DHT22;684;48.342;10.096;2023-06-24T03:21:17;18.00;24.80
1381;DHT22;684;48.342;10.096;2023-06-24T03:23:44;17.90;24.50
1381;DHT22;684;48.342;10.096;2023-06-24T03:26:11;17.90;24.60
1381;DHT22;684;48.342;10.096;2023-06-24T03:28:38;17.80;24.90
1381;DHT22;684;48.342;10.096;2023-06-24T03:31:06;17.90;24.40
1381;DHT22;684;48.342;10.096;2023-06-24T03:33:32;17.80;23.80
1381;DHT22;684;48.342;10.096;2023-06-24T03:35:59;17.80;23.20
1381;DHT22;684;48.342;10.096;2023-06-24T03:38:26;17.70;23.10
1381;DHT22;684;48.342;10.096;2023-06-24T03:40:53;17.70;23.10
1381;DHT22;684;48.342;10.096;2023-06-24T03:43:20;17.70;22.90
1381;DHT22;684;48.342;10.096;2023-06-24T03:45:46;17.60;22.70
1381;DHT22;684;48.342;10.096;2023-06-24T03:48:14;17.60;22.70
1381;DHT22;684;48.342;10.096;2023-06-24T03:50:41;17.60;22.80
1381;DHT22;684;48.342;10.096;2023-06-24T03:53:08;17.60;22.80
1381;DHT22;684;48.342;10.096;2023-06-24T03:55:35;17.60;23.00
1381;DHT22;684;48.342;10.096;2023-06-24T03:58:01;17.60;23.10
1381;DHT22;684;48.342;10.096;2023-06-24T04:00:28;17.60;23.20
1381;DHT22;684;48.342;10.096;2023-06-24T04:02:55;17.60;23.30
1381;DHT22;684;48.342;10.096;2023-06-24T04:05:23;17.60;23.30
1381;DHT22;684;48.342;10.096;2023-06-24T04:07:51;17.60;23.30
1381;DHT22;684;48.342;10.096;2023-06-24T04:10:17;17.70;22.90
1381;DHT22;684;48.342;10.096;2023-06-24T04:12:44;17.70;22.70
1381;DHT22;684;48.342;10.096;2023-06-24T04:15:11;17.70;23.30
1381;DHT22;684;48.342;10.096;2023-06-24T04:17:38;17.90;22.30
1381;DHT22;684;48.342;10.096;2023-06-24T04:20:06;18.00;22.20
1381;DHT22;684;48.342;10.096;2023-06-24T04:22:35;18.10;22.40
1381;DHT22;684;48.342;10.096;2023-06-24T04:25:02;18.20;22.50
1381;DHT22;684;48.342;10.096;2023-06-24T04:27:31;18.40;23.00
1381;DHT22;684;48.342;10.096;2023-06-24T04:29:58;18.40;23.20
1381;DHT22;684;48.342;10.096;2023-06-24T04:32:24;18.50;23.20
1381;DHT22;684;48.342;10.096;2023-06-24T04:34:51;18.70;22.80
1381;DHT22;684;48.342;10.096;2023-06-24T04:37:18;19.70;21.90
1381;DHT22;684;48.342;10.096;2023-06-24T04:39:46;21.00;18.10
1381;DHT22;684;48.342;10.096;2023-06-24T04:42:14;22.40;14.90
1381;DHT22;684;48.342;10.096;2023-06-24T04:44:41;23.30;11.30
1381;DHT22;684;48.342;10.096;2023-06-24T04:47:07;24.10;9.70
1381;DHT22;684;48.342;10.096;2023-06-24T04:49:34;25.00;7.90
1381;DHT22;684;48.342;10.096;2023-06-24T04:52:01;25.80;5.40
1381;DHT22;684;48.342;10.096;2023-06-24T04:54:28;26.30;4.40
1381;DHT22;684;48.342;10.096;2023-06-24T04:56:56;26.80;3.30
1381;DHT22;684;48.342;10.096;2023-06-24T04:59:23;26.80;3.30
1381;DHT22;684;48.342;10.096;2023-06-24T05:01:49;26.50;3.10
1381;DHT22;684;48.342;10.096;2023-06-24T05:04:16;26.80;2.60
1381;DHT22;684;48.342;10.096;2023-06-24T05:06:43;27.30;2.40
1381;DHT22;684;48.342;10.096;2023-06-24T05:09:09;28.10;1.40
1381;DHT22;684;48.342;10.096;2023-06-24T05:11:39;28.70;1.00
1381;DHT22;684;48.342;10.096;2023-06-24T05:14:07;29.10;1.00
1381;DHT22;684;48.342;10.096;2023-06-24T05:16:33;29.30;1.00
1381;DHT22;684;48.342;10.096;2023-06-24T05:19:00;28.50;1.00
1381;DHT22;684;48.342;10.096;2023-06-24T05:21:27;28.30;1.00
1381;DHT22;684;48.342;10.096;2023-06-24T05:23:54;28.30;1.00
1381;DHT22;684;48.342;10.096;2023-06-24T05:26:20;27.70;1.00
1381;DHT22;684;48.342;10.096;2023-06-24T05:28:47;27.80;1.00
1381;DHT22;684;48.342;10.096;2023-06-24T05:31:15;27.70;1.00
1381;DHT22;684;48.342;10.096;2023-06-24T05:33:42;27.50;1.70
1381;DHT22;684;48.342;10.096;2023-06-24T05:36:08;26.90;2.30
1381;DHT22;684;48.342;10.096;2023-06-24T05:38:35;27.40;3.20
1381;DHT22;684;48.342;10.096;2023-06-24T05:41:02;29.00;1.10
1381;DHT22;684;48.342;10.096;2023-06-24T05:43:28;30.80;1.00
1381;DHT22;684;48.342;10.096;2023-06-24T05:45:55;32.50;1.00
1381;DHT22;684;48.342;10.096;2023-06-24T05:48:23;33.80;1.00
1381;DHT22;684;48.342;10.096;2023-06-24T05:50:50;34.90;1.00
1381;DHT22;684;48.342;10.096;2023-06-24T05:53:16;35.90;1.00
1381;DHT22;684;48.342;10.096;2023-06-24T05:55:44;36.90;1.00
1381;DHT22;684;48.342;10.096;2023-06-24T05:58:10;37.70;1.00
1381;DHT22;684;48.342;10.096;2023-06-24T06:00:37;38.30;1.00
1381;DHT22;684;48.342;10.096;2023-06-24T06:03:04;38.60;1.00
1381;DHT22;684;48.342;10.096;2023-06-24T06:05:32;39.00;1.00
1381;DHT22;684;48.342;10.096;2023-06-24T06:07:59;39.50;1.00
1381;DHT22;684;48.342;10.096;2023-06-24T06:10:25;40.10;1.00
1381;DHT22;684;48.342;10.096;2023-06-24T06:12:52;40.80;1.00
1381;DHT22;684;48.342;10.096;2023-06-24T06:15:19;41.30;1.00
1381;DHT22;684;48.342;10.096;2023-06-24T06:17:46;42.00;1.00
1381;DHT22;684;48.342;10.096;2023-06-24T06:20:13;42.50;1.00
1381;DHT22;684;48.342;10.096;2023-06-24T06:22:41;43.10;1.00
1381;DHT22;684;48.342;10.096;2023-06-24T06:25:08;43.60;1.00
1381;DHT22;684;48.342;10.096;2023-06-24T06:27:35;44.10;1.00
1381;DHT22;684;48.342;10.096;2023-06-24T06:30:02;44.30;1.00
1381;DHT22;684;48.342;10.096;2023-06-24T06:32:29;44.50;1.00
1381;DHT22;684;48.342;10.096;2023-06-24T06:34:56;44.90;1.00
1381;DHT22;684;48.342;10.096;2023-06-24T06:37:23;45.40;1.00
1381;DHT22;684;48.342;10.096;2023-06-24T06:39:51;45.90;1.00
1381;DHT22;684;48.342;10.096;2023-06-24T06:42:17;46.50;1.00
1381;DHT22;684;48.342;10.096;2023-06-24T06:44:44;47.00;1.00
1381;DHT22;684;48.342;10.096;2023-06-24T06:47:11;47.70;1.00
1381;DHT22;684;48.342;10.096;2023-06-24T06:49:38;48.10;1.00
1381;DHT22;684;48.342;10.096;2023-06-24T06:52:05;48.30;1.00
1381;DHT22;684;48.342;10.096;2023-06-24T06:54:32;48.20;1.00
1381;DHT22;684;48.342;10.096;2023-06-24T06:57:01;48.60;1.00
1381;DHT22;684;48.342;10.096;2023-06-24T06:59:29;49.10;1.00
1381;DHT22;684;48.342;10.096;2023-06-24T07:01:55;49.40;1.00
1381;DHT22;684;48.342;10.096;2023-06-24T07:04:22;49.70;1.00
1381;DHT22;684;48.342;10.096;2023-06-24T07:06:49;50.20;1.00
1381;DHT22;684;48.342;10.096;2023-06-24T07:09:16;50.60;1.00
1381;DHT22;684;48.342;10.096;2023-06-24T07:11:43;50.90;1.00
1381;DHT22;684;48.342;10.096;2023-06-24T07:14:11;51.20;1.00
1381;DHT22;684;48.342;10.096;2023-06-24T07:16:38;51.80;1.00
1381;DHT22;684;48.342;10.096;2023-06-24T07:19:06;52.20;1.00
1381;DHT22;684;48.342;10.096;2023-06-24T07:21:32;52.60;1.00
1381;DHT22;684;48.342;10.096;2023-06-24T07:23:59;52.90;1.00
1381;DHT22;684;48.342;10.096;2023-06-24T07:26:26;52.60;1.00
1381;DHT22;684;48.342;10.096;2023-06-24T07:28:56;51.70;1.00
1381;DHT22;684;48.342;10.096;2023-06-24T07:31:25;51.00;1.00
1381;DHT22;684;48.342;10.096;2023-06-24T07:33:52;50.90;1.00
1381;DHT22;684;48.342;10.096;2023-06-24T07:36:19;50.70;1.00
1381;DHT22;684;48.342;10.096;2023-06-24T07:38:45;50.80;1.00
1381;DHT22;684;48.342;10.096;2023-06-24T07:41:12;50.50;1.00
1381;DHT22;684;48.342;10.096;2023-06-24T07:43:39;50.60;1.00
1381;DHT22;684;48.342;10.096;2023-06-24T07:46:05;51.00;1.00
1381;DHT22;684;48.342;10.096;2023-06-24T07:48:33;51.40;1.00
1381;DHT22;684;48.342;10.096;2023-06-24T07:51:00;52.10;1.00
1381;DHT22;684;48.342;10.096;2023-06-24T07:53:27;52.70;1.00
1381;DHT22;684;48.342;10.096;2023-06-24T07:55:54;53.20;1.00
1381;DHT22;684;48.342;10.096;2023-06-24T07:58:20;53.50;1.00
1381;DHT22;684;48.342;10.096;2023-06-24T08:00:47;53.70;1.00
1381;DHT22;684;48.342;10.096;2023-06-24T08:03:14;53.30;1.00
1381;DHT22;684;48.342;10.096;2023-06-24T08:05:42;53.40;1.00
1381;DHT22;684;48.342;10.096;2023-06-24T08:08:09;53.70;1.00
1381;DHT22;684;48.342;10.096;2023-06-24T08:10:35;54.40;1.00
1381;DHT22;684;48.342;10.096;2023-06-24T08:13:02;54.80;1.00
1381;DHT22;684;48.342;10.096;2023-06-24T08:15:29;55.20;1.00
1381;DHT22;684;48.342;10.096;2023-06-24T08:17:56;55.40;1.00
1381;DHT22;684;48.342;10.096;2023-06-24T08:20:23;55.90;1.00
1381;DHT22;684;48.342;10.096;2023-06-24T08:22:51;56.60;1.00
1381;DHT22;684;48.342;10.096;2023-06-24T08:25:18;57.00;1.00
1381;DHT22;684;48.342;10.096;2023-06-24T08:27:45;55.90;1.00
1381;DHT22;684;48.342;10.096;2023-06-24T08:30:13;55.50;1.00
1381;DHT22;684;48.342;10.096;2023-06-24T08:32:40;52.40;1.00
1381;DHT22;684;48.342;10.096;2023-06-24T08:35:07;47.90;1.00
1381;DHT22;684;48.342;10.096;2023-06-24T08:37:34;44.10;1.00
1381;DHT22;684;48.342;10.096;2023-06-24T08:40:02;41.10;1.00
1381;DHT22;684;48.342;10.096;2023-06-24T08:42:33;39.20;1.00
1381;DHT22;684;48.342;10.096;2023-06-24T08:45:00;38.20;1.00
1381;DHT22;684;48.342;10.096;2023-06-24T08:47:28;40.40;1.00
1381;DHT22;684;48.342;10.096;2023-06-24T08:50:01;40.50;1.00
1381;DHT22;684;48.342;10.096;2023-06-24T08:52:31;38.30;1.00
1381;DHT22;684;48.342;10.096;2023-06-24T08:55:02;38.90;1.00
1381;DHT22;684;48.342;10.096;2023-06-24T08:57:30;41.60;1.00
1381;DHT22;684;48.342;10.096;2023-06-24T08:59:57;42.70;1.00
1381;DHT22;684;48.342;10.096;2023-06-24T09:02:24;40.90;1.00
1381;DHT22;684;48.342;10.096;2023-06-24T09:04:51;38.90;1.00
1381;DHT22;684;48.342;10.096;2023-06-24T09:07:25;37.30;1.00
1381;DHT22;684;48.342;10.096;2023-06-24T09:09:53;35.90;1.00
1381;DHT22;684;48.342;10.096;2023-06-24T09:12:21;34.90;1.00
1381;DHT22;684;48.342;10.096;2023-06-24T09:14:49;35.80;1.00
1381;DHT22;684;48.342;10.096;2023-06-24T09:17:16;38.00;1.00
1381;DHT22;684;48.342;10.096;2023-06-24T09:19:43;37.20;1.00
1381;DHT22;684;48.342;10.096;2023-06-24T09:22:10;37.00;1.00
1381;DHT22;684;48.342;10.096;2023-06-24T09:24:42;36.50;1.00
1381;DHT22;684;48.342;10.096;2023-06-24T09:27:12;36.10;1.00
1381;DHT22;684;48.342;10.096;2023-06-24T09:29:41;35.70;1.00
1381;DHT22;684;48.342;10.096;2023-06-24T09:32:08;35.00;1.00
1381;DHT22;684;48.342;10.096;2023-06-24T09:34:35;34.00;1.00
1381;DHT22;684;48.342;10.096;2023-06-24T09:37:02;33.30;1.00
1381;DHT22;684;48.342;10.096;2023-06-24T09:39:35;32.60;1.00
1381;DHT22;684;48.342;10.096;2023-06-24T09:42:04;32.40;1.00
1381;DHT22;684;48.342;10.096;2023-06-24T09:44:32;32.40;1.00
1381;DHT22;684;48.342;10.096;2023-06-24T09:47:00;32.50;1.00
1381;DHT22;684;48.342;10.096;2023-06-24T09:49:28;32.50;1.00
1381;DHT22;684;48.342;10.096;2023-06-24T09:51:56;31.90;1.00
1381;DHT22;684;48.342;10.096;2023-06-24T09:54:25;31.30;1.00
1381;DHT22;684;48.342;10.096;2023-06-24T09:56:54;30.50;1.00
1381;DHT22;684;48.342;10.096;2023-06-24T09:59:21;30.00;1.00
1381;DHT22;684;48.342;10.096;2023-06-24T10:01:52;29.60;1.00
1381;DHT22;684;48.342;10.096;2023-06-24T10:04:21;29.00;1.00
1381;DHT22;684;48.342;10.096;2023-06-24T10:06:48;28.60;1.00
1381;DHT22;684;48.342;10.096;2023-06-24T10:09:16;28.30;1.00
1381;DHT22;684;48.342;10.096;2023-06-24T10:11:45;28.30;1.00
1381;DHT22;684;48.342;10.096;2023-06-24T10:14:12;28.10;1.00
1381;DHT22;684;48.342;10.096;2023-06-24T10:16:40;28.00;1.00
1381;DHT22;684;48.342;10.096;2023-06-24T10:19:06;28.00;1.00
1381;DHT22;684;48.342;10.096;2023-06-24T10:21:51;28.10;1.00
1381;DHT22;684;48.342;10.096;2023-06-24T10:24:31;28.30;1.00
1381;DHT22;684;48.342;10.096;2023-06-24T10:27:02;28.30;1.00
1381;DHT22;684;48.342;10.096;2023-06-24T10:29:34;28.00;1.00
1381;DHT22;684;48.342;10.096;2023-06-24T10:32:06;27.80;1.00
1381;DHT22;684;48.342;10.096;2023-06-24T10:34:34;27.60;1.00
1381;DHT22;684;48.342;10.096;2023-06-24T10:37:09;27.40;1.00
1381;DHT22;684;48.342;10.096;2023-06-24T10:39:47;27.20;1.00
1381;DHT22;684;48.342;10.096;2023-06-24T10:42:28;27.30;1.00
1381;DHT22;684;48.342;10.096;2023-06-24T10:44:56;27.30;1.00
1381;DHT22;684;48.342;10.096;2023-06-24T10:47:23;27.10;1.00
1381;DHT22;684;48.342;10.096;2023-06-24T10:49:51;27.00;1.00
1381;DHT22;684;48.342;10.096;2023-06-24T10:52:20;27.00;1.00
1381;DHT22;684;48.342;10.096;2023-06-24T10:54:49;27.00;1.00
1381;DHT22;684;48.342;10.096;2023-06-24T10:57:21;27.00;1.00
1381;DHT22;684;48.342;10.096;2023-06-24T10:59:48;26.90;1.00
1381;DHT22;684;48.342;10.096;2023-06-24T11:02:16;27.00;1.00
1381;DHT22;684;48.342;10.096;2023-06-24T11:04:44;27.00;1.00
1381;DHT22;684;48.342;10.096;2023-06-24T11:07:10;27.20;1.00
1381;DHT22;684;48.342;10.096;2023-06-24T11:09:40;27.30;1.00
1381;DHT22;684;48.342;10.096;2023-06-24T11:12:09;27.20;1.00
1381;DHT22;684;48.342;10.096;2023-06-24T11:14:38;27.20;1.00
1381;DHT22;684;48.342;10.096;2023-06-24T11:17:05;27.20;1.00
1381;DHT22;684;48.342;10.096;2023-06-24T11:19:32;27.00;1.00
1381;DHT22;684;48.342;10.096;2023-06-24T11:22:01;26.90;1.00
1381;DHT22;684;48.342;10.096;2023-06-24T11:24:28;26.80;1.00
1381;DHT22;684;48.342;10.096;2023-06-24T11:26:57;26.60;1.00
1381;DHT22;684;48.342;10.096;2023-06-24T11:29:24;26.70;1.00
1381;DHT22;684;48.342;10.096;2023-06-24T11:31:51;26.60;1.00
1381;DHT22;684;48.342;10.096;2023-06-24T11:34:17;26.50;1.00
1381;DHT22;684;48.342;10.096;2023-06-24T11:36:44;26.40;1.00
1381;DHT22;684;48.342;10.096;2023-06-24T11:39:21;26.20;1.00
1381;DHT22;684;48.342;10.096;2023-06-24T11:41:48;26.20;1.00
1381;DHT22;684;48.342;10.096;2023-06-24T11:44:18;26.20;1.00
1381;DHT22;684;48.342;10.096;2023-06-24T11:46:46;26.10;1.00
1381;DHT22;684;48.342;10.096;2023-06-24T11:49:12;26.20;1.00
1381;DHT22;684;48.342;10.096;2023-06-24T11:51:46;26.10;1.00
1381;DHT22;684;48.342;10.096;2023-06-24T11:54:15;26.00;1.00
1381;DHT22;684;48.342;10.096;2023-06-24T11:56:44;26.00;1.00
1381;DHT22;684;48.342;10.096;2023-06-24T11:59:21;26.00;1.00
1381;DHT22;684;48.342;10.096;2023-06-24T12:01:53;25.90;1.00
1381;DHT22;684;48.342;10.096;2023-06-24T12:04:21;25.90;1.00
1381;DHT22;684;48.342;10.096;2023-06-24T12:06:53;26.00;1.00
1381;DHT22;684;48.342;10.096;2023-06-24T12:09:20;26.00;1.00
1381;DHT22;684;48.342;10.096;2023-06-24T12:11:47;26.00;1.00
1381;DHT22;684;48.342;10.096;2023-06-24T12:14:14;25.80;1.00
1381;DHT22;684;48.342;10.096;2023-06-24T12:16:42;25.70;1.00
1381;DHT22;684;48.342;10.096;2023-06-24T12:19:09;25.80;1.00
1381;DHT22;684;48.342;10.096;2023-06-24T12:21:35;25.70;1.00
1381;DHT22;684;48.342;10.096;2023-06-24T12:24:05;25.70;1.00
1381;DHT22;684;48.342;10.096;2023-06-24T12:26:31;25.60;1.00
1381;DHT22;684;48.342;10.096;2023-06-24T12:28:58;25.50;1.00
1381;DHT22;684;48.342;10.096;2023-06-24T12:31:25;25.50;1.00
1381;DHT22;684;48.342;10.096;2023-06-24T12:33:53;25.60;1.00
1381;DHT22;684;48.342;10.096;2023-06-24T12:36:21;25.60;1.00
1381;DHT22;684;48.342;10.096;2023-06-24T12:38:48;25.60;1.00
1381;DHT22;684;48.342;10.096;2023-06-24T12:41:15;25.60;1.00
1381;DHT22;684;48.342;10.096;2023-06-24T12:43:41;25.50;1.00
1381;DHT22;684;48.342;10.096;2023-06-24T12:46:08;25.60;1.00
1381;DHT22;684;48.342;10.096;2023-06-24T12:48:35;25.60;1.00
1381;DHT22;684;48.342;10.096;2023-06-24T12:51:03;25.60;1.00
1381;DHT22;684;48.342;10.096;2023-06-24T12:53:30;25.60;1.00
1381;DHT22;684;48.342;10.096;2023-06-24T12:55:57;25.50;1.00
1381;DHT22;684;48.342;10.096;2023-06-24T12:58:24;25.40;1.00
1381;DHT22;684;48.342;10.096;2023-06-24T13:00:51;25.50;1.00
1381;DHT22;684;48.342;10.096;2023-06-24T13:03:17;25.50;1.00
1381;DHT22;684;48.342;10.096;2023-06-24T13:05:44;25.50;1.00
1381;DHT22;684;48.342;10.096;2023-06-24T13:08:12;25.60;1.00
1381;DHT22;684;48.342;10.096;2023-06-24T13:10:50;25.60;1.00
1381;DHT22;684;48.342;10.096;2023-06-24T13:13:17;25.70;1.00
1381;DHT22;684;48.342;10.096;2023-06-24T13:15:44;25.70;1.00
1381;DHT22;684;48.342;10.096;2023-06-24T13:18:11;25.80;1.00
1381;DHT22;684;48.342;10.096;2023-06-24T13:20:37;25.80;1.00
1381;DHT22;684;48.342;10.096;2023-06-24T13:23:04;25.80;1.00
1381;DHT22;684;48.342;10.096;2023-06-24T13:25:31;25.80;1.00
1381;DHT22;684;48.342;10.096;2023-06-24T13:27:59;25.90;1.00
1381;DHT22;684;48.342;10.096;2023-06-24T13:30:26;25.90;1.00
1381;DHT22;684;48.342;10.096;2023-06-24T13:32:52;26.00;1.00
1381;DHT22;684;48.342;10.096;2023-06-24T13:35:19;26.00;1.00
1381;DHT22;684;48.342;10.096;2023-06-24T13:37:46;26.00;1.00
1381;DHT22;684;48.342;10.096;2023-06-24T13:40:13;26.00;1.00
1381;DHT22;684;48.342;10.096;2023-06-24T13:42:39;26.00;1.00
1381;DHT22;684;48.342;10.096;2023-06-24T13:45:08;26.00;1.00
1381;DHT22;684;48.342;10.096;2023-06-24T13:47:36;26.00;1.00
1381;DHT22;684;48.342;10.096;2023-06-24T13:50:04;26.00;1.00
1381;DHT22;684;48.342;10.096;2023-06-24T13:52:31;26.00;1.00
1381;DHT22;684;48.342;10.096;2023-06-24T13:54:58;26.00;1.00
1381;DHT22;684;48.342;10.096;2023-06-24T13:57:24;26.00;1.00
1381;DHT22;684;48.342;10.096;2023-06-24T13:59:51;26.10;1.00
1381;DHT22;684;48.342;10.096;2023-06-24T14:02:19;26.00;1.00
1381;DHT22;684;48.342;10.096;2023-06-24T14:04:46;26.00;1.00
1381;DHT22;684;48.342;10.096;2023-06-24T14:07:13;26.00;1.00
1381;DHT22;684;48.342;10.096;2023-06-24T14:09:40;26.00;1.00
1381;DHT22;684;48.342;10.096;2023-06-24T14:12:08;25.90;1.00
1381;DHT22;684;48.342;10.096;2023-06-24T14:14:36;25.80;1.00
1381;DHT22;684;48.342;10.096;2023-06-24T14:17:05;25.80;1.00
1381;DHT22;684;48.342;10.096;2023-06-24T14:19:37;25.80;1.00
1381;DHT22;684;48.342;10.096;2023-06-24T14:22:04;25.80;1.00
1381;DHT22;684;48.342;10.096;2023-06-24T14:24:31;25.70;1.00
1381;DHT22;684;48.342;10.096;2023-06-24T14:26:58;25.70;1.00
1381;DHT22;684;48.342;10.096;2023-06-24T14:29:25;25.70;1.00
1381;DHT22;684;48.342;10.096;2023-06-24T14:31:52;25.70;1.00
1381;DHT22;684;48.342;10.096;2023-06-24T14:34:19;25.70;1.00
1381;DHT22;684;48.342;10.096;2023-06-24T14:36:47;25.70;1.00
1381;DHT22;684;48.342;10.096;2023-06-24T14:39:15;25.60;1.00
1381;DHT22;684;48.342;10.096;2023-06-24T14:41:42;25.60;1.00
1381;DHT22;684;48.342;10.096;2023-06-24T14:44:09;25.60;1.00
1381;DHT22;684;48.342;10.096;2023-06-24T14:46:35;25.60;1.00
1381;DHT22;684;48.342;10.096;2023-06-24T14:49:02;25.60;1.00
1381;DHT22;684;48.342;10.096;2023-06-24T14:51:29;25.60;1.00
1381;DHT22;684;48.342;10.096;2023-06-24T14:53:57;25.60;1.00
1381;DHT22;684;48.342;10.096;2023-06-24T14:56:23;25.50;1.00
1381;DHT22;684;48.342;10.096;2023-06-24T14:58:50;25.60;1.00
1381;DHT22;684;48.342;10.096;2023-06-24T15:01:17;25.60;1.00
1381;DHT22;684;48.342;10.096;2023-06-24T15:03:44;25.60;1.00
1381;DHT22;684;48.342;10.096;2023-06-24T15:06:10;25.60;1.00
1381;DHT22;684;48.342;10.096;2023-06-24T15:08:37;25.60;1.00
1381;DHT22;684;48.342;10.096;2023-06-24T15:11:06;25.60;1.00
1381;DHT22;684;48.342;10.096;2023-06-24T15:13:32;25.60;1.00
1381;DHT22;684;48.342;10.096;2023-06-24T15:15:59;25.60;1.00
1381;DHT22;684;48.342;10.096;2023-06-24T15:18:26;25.60;1.00
1381;DHT22;684;48.342;10.096;2023-06-24T15:20:52;25.60;1.00
1381;DHT22;684;48.342;10.096;2023-06-24T15:23:20;25.60;1.00
1381;DHT22;684;48.342;10.096;2023-06-24T15:25:47;25.60;1.00
1381;DHT22;684;48.342;10.096;2023-06-24T15:28:16;25.60;1.00
1381;DHT22;684;48.342;10.096;2023-06-24T15:30:43;25.60;1.00
1381;DHT22;684;48.342;10.096;2023-06-24T15:33:10;25.50;1.00
1381;DHT22;684;48.342;10.096;2023-06-24T15:35:36;25.50;1.00
1381;DHT22;684;48.342;10.096;2023-06-24T15:38:03;25.50;1.00
1381;DHT22;684;48.342;10.096;2023-06-24T15:40:30;25.50;1.00
1381;DHT22;684;48.342;10.096;2023-06-24T15:42:57;25.50;1.00
1381;DHT22;684;48.342;10.096;2023-06-24T15:45:25;25.50;1.00
1381;DHT22;684;48.342;10.096;2023-06-24T15:47:52;25.50;1.00
1381;DHT22;684;48.342;10.096;2023-06-24T15:50:19;25.50;1.00
1381;DHT22;684;48.342;10.096;2023-06-24T15:52:46;25.40;1.00
1381;DHT22;684;48.342;10.096;2023-06-24T15:55:13;25.40;1.00
1381;DHT22;684;48.342;10.096;2023-06-24T15:57:39;25.40;1.00
1381;DHT22;684;48.342;10.096;2023-06-24T16:00:07;25.40;1.00
1381;DHT22;684;48.342;10.096;2023-06-24T16:02:35;25.30;1.00
1381;DHT22;684;48.342;10.096;2023-06-24T16:05:02;25.30;1.00
1381;DHT22;684;48.342;10.096;2023-06-24T16:07:31;25.40;1.00
1381;DHT22;684;48.342;10.096;2023-06-24T16:09:57;25.40;1.00
1381;DHT22;684;48.342;10.096;2023-06-24T16:12:24;25.40;1.00
1381;DHT22;684;48.342;10.096;2023-06-24T16:14:51;25.40;1.00
1381;DHT22;684;48.342;10.096;2023-06-24T16:17:18;25.40;1.00